Terminal Aerodrome Forecast
Issued by NWS Wakefield, VA

Current Version | Previous Version | Text Only | Print | Product List | Glossary On
Versions: 1 2 3 4 5 6 7 8 9 10 11 12 13 14 15 16 17 18 19 20 21 22 23 24 25 26 27
105
FTUS41 KAKQ 231032 AAA
TAFRIC
TAF AMD
KRIC 231032Z 2311/2406 05006KT 5SM -DZ BR OVC005
      TEMPO 2311/2313 P6SM -DZ OVC004
     FM231300 05004KT P6SM OVC006
     FM231900 VRB03KT P6SM BKN010
     FM232200 VRB03KT P6SM BKN020
     FM240000 00000KT P6SM SCT025=

USA.gov is the U.S. government's official web portal to all federal, state and local government web resources and services.